sensor_id;sensor_type;location;lat;lon;timestamp;temperature;humidity
68109;SHT30;54893;49.864;19.084;2023-06-14T00:00:16;7.49;95.13
68109;SHT30;54893;49.864;19.084;2023-06-14T00:05:17;7.54;92.06
68109;SHT30;54893;49.864;19.084;2023-06-14T00:10:17;7.61;94.12
68109;SHT30;54893;49.864;19.084;2023-06-14T00:15:17;7.90;87.41
68109;SHT30;54893;49.864;19.084;2023-06-14T00:20:18;8.31;86.01
68109;SHT30;54893;49.864;19.084;2023-06-14T00:25:18;8.63;87.82
68109;SHT30;54893;49.864;19.084;2023-06-14T00:30:19;8.83;87.67
68109;SHT30;54893;49.864;19.084;2023-06-14T00:35:20;8.97;90.35
68109;SHT30;54893;49.864;19.084;2023-06-14T00:40:21;9.07;90.39
68109;SHT30;54893;49.864;19.084;2023-06-14T00:45:21;9.13;89.14
68109;SHT30;54893;49.864;19.084;2023-06-14T00:50:23;9.22;90.46
68109;SHT30;54893;49.864;19.084;2023-06-14T00:55:23;9.22;90.32
68109;SHT30;54893;49.864;19.084;2023-06-14T01:00:24;9.27;93.11
68109;SHT30;54893;49.864;19.084;2023-06-14T01:05:24;9.28;92.95
68109;SHT30;54893;49.864;19.084;2023-06-14T01:10:40;9.27;94.12
68109;SHT30;54893;49.864;19.084;2023-06-14T01:15:45;9.23;92.41
68109;SHT30;54893;49.864;19.084;2023-06-14T01:20:47;9.22;91.58
68109;SHT30;54893;49.864;19.084;2023-06-14T01:25:50;9.14;93.60
68109;SHT30;54893;49.864;19.084;2023-06-14T01:30:53;9.17;94.36
68109;SHT30;54893;49.864;19.084;2023-06-14T01:35:55;9.13;93.70
68109;SHT30;54893;49.864;19.084;2023-06-14T01:40:57;9.12;94.22
68109;SHT30;54893;49.864;19.084;2023-06-14T01:45:59;9.07;93.15
68109;SHT30;54893;49.864;19.084;2023-06-14T01:51:00;9.07;95.03
68109;SHT30;54893;49.864;19.084;2023-06-14T01:56:00;9.09;96.72
68109;SHT30;54893;49.864;19.084;2023-06-14T02:01:01;9.09;95.26
68109;SHT30;54893;49.864;19.084;2023-06-14T02:06:02;9.04;93.35
68109;SHT30;54893;49.864;19.084;2023-06-14T02:11:02;9.07;94.60
68109;SHT30;54893;49.864;19.084;2023-06-14T02:16:03;9.10;95.35
68109;SHT30;54893;49.864;19.084;2023-06-14T02:21:05;9.04;96.42
68109;SHT30;54893;49.864;19.084;2023-06-14T02:26:05;9.03;95.45
68109;SHT30;54893;49.864;19.084;2023-06-14T02:31:05;9.13;93.97
68109;SHT30;54893;49.864;19.084;2023-06-14T02:36:06;9.14;95.48
68109;SHT30;54893;49.864;19.084;2023-06-14T02:41:07;9.14;95.08
68109;SHT30;54893;49.864;19.084;2023-06-14T02:46:07;9.13;95.56
68109;SHT30;54893;49.864;19.084;2023-06-14T02:51:07;9.12;94.20
68109;SHT30;54893;49.864;19.084;2023-06-14T02:56:09;9.06;93.96
68109;SHT30;54893;49.864;19.084;2023-06-14T03:01:10;9.13;96.82
68109;SHT30;54893;49.864;19.084;2023-06-14T03:06:12;9.17;96.49
68109;SHT30;54893;49.864;19.084;2023-06-14T03:11:14;9.20;97.78
68109;SHT30;54893;49.864;19.084;2023-06-14T03:16:15;9.17;97.91
68109;SHT30;54893;49.864;19.084;2023-06-14T03:21:18;9.14;96.70
68109;SHT30;54893;49.864;19.084;2023-06-14T03:26:20;8.97;97.59
68109;SHT30;54893;49.864;19.084;2023-06-14T03:31:20;9.17;97.93
68109;SHT30;54893;49.864;19.084;2023-06-14T03:36:21;9.26;98.01
68109;SHT30;54893;49.864;19.084;2023-06-14T03:41:21;8.83;97.25
68109;SHT30;54893;49.864;19.084;2023-06-14T03:46:22;8.62;93.00
68109;SHT30;54893;49.864;19.084;2023-06-14T03:51:22;8.80;92.14
68109;SHT30;54893;49.864;19.084;2023-06-14T03:56:23;8.99;96.48
68109;SHT30;54893;49.864;19.084;2023-06-14T04:01:23;9.19;97.05
68109;SHT30;54893;49.864;19.084;2023-06-14T04:06:27;9.44;96.90
68109;SHT30;54893;49.864;19.084;2023-06-14T04:11:32;9.30;93.31
68109;SHT30;54893;49.864;19.084;2023-06-14T04:16:32;9.43;91.94
68109;SHT30;54893;49.864;19.084;2023-06-14T04:21:33;9.65;91.19
68109;SHT30;54893;49.864;19.084;2023-06-14T04:26:35;10.05;91.93
68109;SHT30;54893;49.864;19.084;2023-06-14T04:31:36;10.28;94.99
68109;SHT30;54893;49.864;19.084;2023-06-14T04:36:39;10.25;95.15
68109;SHT30;54893;49.864;19.084;2023-06-14T04:41:41;10.12;92.30
68109;SHT30;54893;49.864;19.084;2023-06-14T04:46:42;10.21;91.01
68109;SHT30;54893;49.864;19.084;2023-06-14T04:51:48;10.25;90.41
68109;SHT30;54893;49.864;19.084;2023-06-14T04:56:51;10.45;90.72
68109;SHT30;54893;49.864;19.084;2023-06-14T05:01:51;10.36;91.15
68109;SHT30;54893;49.864;19.084;2023-06-14T05:06:53;10.35;90.90
68109;SHT30;54893;49.864;19.084;2023-06-14T05:11:57;10.41;92.46
68109;SHT30;54893;49.864;19.084;2023-06-14T05:17:00;10.77;93.79
68109;SHT30;54893;49.864;19.084;2023-06-14T05:22:01;10.79;90.68
68109;SHT30;54893;49.864;19.084;2023-06-14T05:27:03;11.04;92.78
68109;SHT30;54893;49.864;19.084;2023-06-14T05:32:04;11.70;92.84
68109;SHT30;54893;49.864;19.084;2023-06-14T05:37:04;12.25;91.56
68109;SHT30;54893;49.864;19.084;2023-06-14T05:42:05;12.50;91.11
68109;SHT30;54893;49.864;19.084;2023-06-14T05:47:06;12.69;89.83
68109;SHT30;54893;49.864;19.084;2023-06-14T05:52:07;12.65;88.43
68109;SHT30;54893;49.864;19.084;2023-06-14T05:57:07;12.59;90.02
68109;SHT30;54893;49.864;19.084;2023-06-14T06:02:08;12.58;87.10
68109;SHT30;54893;49.864;19.084;2023-06-14T06:07:08;12.53;87.65
68109;SHT30;54893;49.864;19.084;2023-06-14T06:12:09;12.76;88.73
68109;SHT30;54893;49.864;19.084;2023-06-14T06:17:10;12.83;86.93
68109;SHT30;54893;49.864;19.084;2023-06-14T06:22:10;12.39;88.32
68109;SHT30;54893;49.864;19.084;2023-06-14T06:27:11;12.25;88.85
68109;SHT30;54893;49.864;19.084;2023-06-14T06:32:12;12.25;88.60
68109;SHT30;54893;49.864;19.084;2023-06-14T06:37:13;12.49;88.00
68109;SHT30;54893;49.864;19.084;2023-06-14T06:42:14;12.48;88.34
68109;SHT30;54893;49.864;19.084;2023-06-14T06:47:14;12.59;89.39
68109;SHT30;54893;49.864;19.084;2023-06-14T06:52:14;13.09;86.69
68109;SHT30;54893;49.864;19.084;2023-06-14T06:57:15;13.37;87.21
68109;SHT30;54893;49.864;19.084;2023-06-14T07:02:16;14.43;85.60
68109;SHT30;54893;49.864;19.084;2023-06-14T07:07:17;14.95;82.96
68109;SHT30;54893;49.864;19.084;2023-06-14T07:12:17;14.26;84.00
68109;SHT30;54893;49.864;19.084;2023-06-14T07:17:18;15.49;83.20
68109;SHT30;54893;49.864;19.084;2023-06-14T07:22:19;15.98;80.67
68109;SHT30;54893;49.864;19.084;2023-06-14T07:27:20;16.19;79.83
68109;SHT30;54893;49.864;19.084;2023-06-14T07:32:20;15.77;80.36
68109;SHT30;54893;49.864;19.084;2023-06-14T07:37:20;15.40;81.13
68109;SHT30;54893;49.864;19.084;2023-06-14T07:42:21;15.51;80.72
68109;SHT30;54893;49.864;19.084;2023-06-14T07:47:21;15.55;80.56
68109;SHT30;54893;49.864;19.084;2023-06-14T07:52:21;15.26;81.13
68109;SHT30;54893;49.864;19.084;2023-06-14T07:57:22;15.85;79.70
68109;SHT30;54893;49.864;19.084;2023-06-14T08:02:22;15.84;79.05
68109;SHT30;54893;49.864;19.084;2023-06-14T08:07:23;14.83;82.10
68109;SHT30;54893;49.864;19.084;2023-06-14T08:12:23;16.55;77.06
68109;SHT30;54893;49.864;19.084;2023-06-14T08:17:24;16.48;75.64
68109;SHT30;54893;49.864;19.084;2023-06-14T08:22:25;17.83;74.55
68109;SHT30;54893;49.864;19.084;2023-06-14T08:27:25;18.22;72.41
68109;SHT30;54893;49.864;19.084;2023-06-14T08:32:26;17.46;73.29
68109;SHT30;54893;49.864;19.084;2023-06-14T08:37:26;17.00;75.16
68109;SHT30;54893;49.864;19.084;2023-06-14T08:42:27;16.79;74.98
68109;SHT30;54893;49.864;19.084;2023-06-14T08:47:27;16.97;75.28
68109;SHT30;54893;49.864;19.084;2023-06-14T08:52:31;15.57;77.83
68109;SHT30;54893;49.864;19.084;2023-06-14T08:57:33;15.30;78.71
68109;SHT30;54893;49.864;19.084;2023-06-14T09:02:38;15.90;77.44
68109;SHT30;54893;49.864;19.084;2023-06-14T09:07:41;16.51;76.62
68109;SHT30;54893;49.864;19.084;2023-06-14T09:12:44;17.39;73.81
68109;SHT30;54893;49.864;19.084;2023-06-14T09:17:45;17.60;73.79
68109;SHT30;54893;49.864;19.084;2023-06-14T09:22:45;18.79;72.05
68109;SHT30;54893;49.864;19.084;2023-06-14T09:27:47;19.63;69.12
68109;SHT30;54893;49.864;19.084;2023-06-14T09:32:47;19.53;68.31
68109;SHT30;54893;49.864;19.084;2023-06-14T09:37:48;18.71;70.54
68109;SHT30;54893;49.864;19.084;2023-06-14T09:42:48;18.32;72.12
68109;SHT30;54893;49.864;19.084;2023-06-14T09:47:49;18.28;72.90
68109;SHT30;54893;49.864;19.084;2023-06-14T09:52:52;17.90;73.89
68109;SHT30;54893;49.864;19.084;2023-06-14T09:57:54;18.24;73.53
68109;SHT30;54893;49.864;19.084;2023-06-14T10:03:00;18.05;74.16
68109;SHT30;54893;49.864;19.084;2023-06-14T10:08:13;17.74;75.49
68109;SHT30;54893;49.864;19.084;2023-06-14T10:13:16;17.75;75.22
68109;SHT30;54893;49.864;19.084;2023-06-14T10:18:35;17.47;76.02
68109;SHT30;54893;49.864;19.084;2023-06-14T10:23:41;18.66;72.97
68109;SHT30;54893;49.864;19.084;2023-06-14T10:28:55;18.05;73.11
68109;SHT30;54893;49.864;19.084;2023-06-14T10:33:57;18.14;73.96
68109;SHT30;54893;49.864;19.084;2023-06-14T10:39:04;18.11;73.53
68109;SHT30;54893;49.864;19.084;2023-06-14T10:49:19;18.82;73.04
68109;SHT30;54893;49.864;19.084;2023-06-14T10:54:22;18.72;73.49
68109;SHT30;54893;49.864;19.084;2023-06-14T10:59:23;18.77;72.55
68109;SHT30;54893;49.864;19.084;2023-06-14T11:04:34;19.71;70.08
68109;SHT30;54893;49.864;19.084;2023-06-14T11:15:03;19.43;70.90
68109;SHT30;54893;49.864;19.084;2023-06-14T11:20:09;19.64;70.04
68109;SHT30;54893;49.864;19.084;2023-06-14T11:25:11;19.53;67.51
68109;SHT30;54893;49.864;19.084;2023-06-14T11:30:13;21.04;65.23
68109;SHT30;54893;49.864;19.084;2023-06-14T11:35:13;19.07;71.20
68109;SHT30;54893;49.864;19.084;2023-06-14T11:40:14;18.38;72.34
68109;SHT30;54893;49.864;19.084;2023-06-14T11:45:15;17.78;73.85
68109;SHT30;54893;49.864;19.084;2023-06-14T11:50:15;18.02;73.95
68109;SHT30;54893;49.864;19.084;2023-06-14T11:55:15;19.02;69.39
68109;SHT30;54893;49.864;19.084;2023-06-14T12:00:16;19.88;68.04
68109;SHT30;54893;49.864;19.084;2023-06-14T12:05:20;19.40;70.10
68109;SHT30;54893;49.864;19.084;2023-06-14T12:10:21;19.94;68.20
68109;SHT30;54893;49.864;19.084;2023-06-14T12:15:22;20.72;65.18
68109;SHT30;54893;49.864;19.084;2023-06-14T12:20:22;20.47;65.55
68109;SHT30;54893;49.864;19.084;2023-06-14T12:25:42;20.29;64.21
68109;SHT30;54893;49.864;19.084;2023-06-14T12:30:42;21.78;64.84
68109;SHT30;54893;49.864;19.084;2023-06-14T12:35:42;20.55;65.34
68109;SHT30;54893;49.864;19.084;2023-06-14T12:40:43;20.13;63.53
68109;SHT30;54893;49.864;19.084;2023-06-14T12:45:43;19.98;65.50
68109;SHT30;54893;49.864;19.084;2023-06-14T12:50:44;18.91;66.35
68109;SHT30;54893;49.864;19.084;2023-06-14T12:55:44;20.41;64.23
68109;SHT30;54893;49.864;19.084;2023-06-14T13:00:45;20.68;64.50
68109;SHT30;54893;49.864;19.084;2023-06-14T13:05:46;20.38;65.54
68109;SHT30;54893;49.864;19.084;2023-06-14T13:10:47;21.50;62.84
68109;SHT30;54893;49.864;19.084;2023-06-14T13:15:47;21.09;62.15
68109;SHT30;54893;49.864;19.084;2023-06-14T13:20:49;22.48;58.94
68109;SHT30;54893;49.864;19.084;2023-06-14T13:25:50;21.32;60.44
68109;SHT30;54893;49.864;19.084;2023-06-14T13:30:51;22.00;59.82
68109;SHT30;54893;49.864;19.084;2023-06-14T13:35:51;22.10;58.70
68109;SHT30;54893;49.864;19.084;2023-06-14T13:40:53;20.75;61.41
68109;SHT30;54893;49.864;19.084;2023-06-14T13:45:53;19.91;62.92
68109;SHT30;54893;49.864;19.084;2023-06-14T13:50:54;20.72;62.40
68109;SHT30;54893;49.864;19.084;2023-06-14T13:55:54;21.24;59.34
68109;SHT30;54893;49.864;19.084;2023-06-14T14:00:55;22.30;59.02
68109;SHT30;54893;49.864;19.084;2023-06-14T14:05:55;25.32;55.12
68109;SHT30;54893;49.864;19.084;2023-06-14T14:10:56;22.65;58.39
68109;SHT30;54893;49.864;19.084;2023-06-14T14:15:56;21.49;62.35
68109;SHT30;54893;49.864;19.084;2023-06-14T14:20:56;24.72;55.48
68109;SHT30;54893;49.864;19.084;2023-06-14T14:25:57;25.02;54.00
68109;SHT30;54893;49.864;19.084;2023-06-14T14:30:57;27.79;48.20
68109;SHT30;54893;49.864;19.084;2023-06-14T14:35:57;28.06;48.20
68109;SHT30;54893;49.864;19.084;2023-06-14T14:40:59;25.08;52.09
68109;SHT30;54893;49.864;19.084;2023-06-14T14:46:00;23.19;58.89
68109;SHT30;54893;49.864;19.084;2023-06-14T14:51:00;24.75;55.37
68109;SHT30;54893;49.864;19.084;2023-06-14T14:56:01;28.47;50.14
68109;SHT30;54893;49.864;19.084;2023-06-14T15:01:01;30.84;45.57
68109;SHT30;54893;49.864;19.084;2023-06-14T15:06:01;32.44;45.01
68109;SHT30;54893;49.864;19.084;2023-06-14T15:11:02;31.61;39.77
68109;SHT30;54893;49.864;19.084;2023-06-14T15:16:03;32.30;42.71
68109;SHT30;54893;49.864;19.084;2023-06-14T15:21:03;27.82;49.68
68109;SHT30;54893;49.864;19.084;2023-06-14T15:26:04;24.22;55.20
68109;SHT30;54893;49.864;19.084;2023-06-14T15:31:04;24.64;53.68
68109;SHT30;54893;49.864;19.084;2023-06-14T15:36:05;24.96;52.80
68109;SHT30;54893;49.864;19.084;2023-06-14T15:41:06;22.95;56.55
68109;SHT30;54893;49.864;19.084;2023-06-14T15:46:07;25.09;51.51
68109;SHT30;54893;49.864;19.084;2023-06-14T15:51:08;25.35;50.54
68109;SHT30;54893;49.864;19.084;2023-06-14T15:56:08;25.58;52.87
68109;SHT30;54893;49.864;19.084;2023-06-14T16:01:08;22.45;57.53
68109;SHT30;54893;49.864;19.084;2023-06-14T16:06:09;20.80;60.54
68109;SHT30;54893;49.864;19.084;2023-06-14T16:11:09;21.40;59.18
68109;SHT30;54893;49.864;19.084;2023-06-14T16:16:10;20.34;60.75
68109;SHT30;54893;49.864;19.084;2023-06-14T16:21:10;19.66;63.27
68109;SHT30;54893;49.864;19.084;2023-06-14T16:26:12;19.33;63.22
68109;SHT30;54893;49.864;19.084;2023-06-14T16:31:15;18.92;64.48
68109;SHT30;54893;49.864;19.084;2023-06-14T16:36:17;18.49;65.51
68109;SHT30;54893;49.864;19.084;2023-06-14T16:41:17;18.37;67.63
68109;SHT30;54893;49.864;19.084;2023-06-14T16:46:28;18.09;67.94
68109;SHT30;54893;49.864;19.084;2023-06-14T16:51:30;18.00;66.15
68109;SHT30;54893;49.864;19.084;2023-06-14T16:56:30;17.67;68.82
68109;SHT30;54893;49.864;19.084;2023-06-14T17:01:31;17.37;69.39
68109;SHT30;54893;49.864;19.084;2023-06-14T17:06:33;17.29;67.63
68109;SHT30;54893;49.864;19.084;2023-06-14T17:11:33;17.17;68.03
68109;SHT30;54893;49.864;19.084;2023-06-14T17:16:34;16.87;70.61
68109;SHT30;54893;49.864;19.084;2023-06-14T17:21:34;16.63;70.72
68109;SHT30;54893;49.864;19.084;2023-06-14T17:26:34;16.62;71.72
68109;SHT30;54893;49.864;19.084;2023-06-14T17:31:35;16.44;70.34
68109;SHT30;54893;49.864;19.084;2023-06-14T17:36:35;16.25;75.18
68109;SHT30;54893;49.864;19.084;2023-06-14T17:41:36;16.12;72.10
68109;SHT30;54893;49.864;19.084;2023-06-14T17:46:36;16.11;70.98
68109;SHT30;54893;49.864;19.084;2023-06-14T17:51:36;16.02;75.14
68109;SHT30;54893;49.864;19.084;2023-06-14T17:56:37;16.21;75.58
68109;SHT30;54893;49.864;19.084;2023-06-14T18:01:37;16.05;74.05
68109;SHT30;54893;49.864;19.084;2023-06-14T18:06:38;15.97;74.54
68109;SHT30;54893;49.864;19.084;2023-06-14T18:11:38;15.74;79.58
68109;SHT30;54893;49.864;19.084;2023-06-14T18:16:38;15.50;80.60
68109;SHT30;54893;49.864;19.084;2023-06-14T18:21:40;15.26;81.96
68109;SHT30;54893;49.864;19.084;2023-06-14T18:26:41;15.11;81.76
68109;SHT30;54893;49.864;19.084;2023-06-14T18:31:41;14.87;84.07
68109;SHT30;54893;49.864;19.084;2023-06-14T18:36:42;14.69;86.72
68109;SHT30;54893;49.864;19.084;2023-06-14T18:41:42;14.48;90.33
68109;SHT30;54893;49.864;19.084;2023-06-14T18:46:42;14.08;90.39
68109;SHT30;54893;49.864;19.084;2023-06-14T18:51:43;13.82;87.94
68109;SHT30;54893;49.864;19.084;2023-06-14T18:56:44;13.66;83.75
68109;SHT30;54893;49.864;19.084;2023-06-14T19:01:45;13.64;84.90
68109;SHT30;54893;49.864;19.084;2023-06-14T19:06:47;13.61;86.90
68109;SHT30;54893;49.864;19.084;2023-06-14T19:11:48;13.42;89.84
68109;SHT30;54893;49.864;19.084;2023-06-14T19:16:48;13.26;89.85
68109;SHT30;54893;49.864;19.084;2023-06-14T19:21:50;13.10;91.94
68109;SHT30;54893;49.864;19.084;2023-06-14T19:26:50;12.93;93.78
68109;SHT30;54893;49.864;19.084;2023-06-14T19:31:51;12.85;94.50
68109;SHT30;54893;49.864;19.084;2023-06-14T19:36:53;12.80;94.73
68109;SHT30;54893;49.864;19.084;2023-06-14T19:41:53;12.68;89.85
68109;SHT30;54893;49.864;19.084;2023-06-14T19:46:54;12.99;92.57
68109;SHT30;54893;49.864;19.084;2023-06-14T19:51:54;13.07;93.91
68109;SHT30;54893;49.864;19.084;2023-06-14T19:56:55;13.02;95.00
68109;SHT30;54893;49.864;19.084;2023-06-14T20:01:55;12.89;95.62
68109;SHT30;54893;49.864;19.084;2023-06-14T20:06:56;12.72;96.45
68109;SHT30;54893;49.864;19.084;2023-06-14T20:11:58;12.52;96.46
68109;SHT30;54893;49.864;19.084;2023-06-14T20:16:59;12.52;96.40
68109;SHT30;54893;49.864;19.084;2023-06-14T20:21:59;12.65;96.86
68109;SHT30;54893;49.864;19.084;2023-06-14T20:26:59;12.79;97.06
68109;SHT30;54893;49.864;19.084;2023-06-14T20:32:00;12.93;97.04
68109;SHT30;54893;49.864;19.084;2023-06-14T20:37:00;13.00;96.53
68109;SHT30;54893;49.864;19.084;2023-06-14T20:42:01;13.00;95.76
68109;SHT30;54893;49.864;19.084;2023-06-14T20:47:01;12.92;85.50
68109;SHT30;54893;49.864;19.084;2023-06-14T20:52:03;12.85;87.90
68109;SHT30;54893;49.864;19.084;2023-06-14T20:57:07;12.52;95.48
68109;SHT30;54893;49.864;19.084;2023-06-14T21:02:11;12.20;96.31
68109;SHT30;54893;49.864;19.084;2023-06-14T21:07:17;11.94;96.84
68109;SHT30;54893;49.864;19.084;2023-06-14T21:12:18;11.82;97.69
68109;SHT30;54893;49.864;19.084;2023-06-14T21:17:18;11.70;97.88
68109;SHT30;54893;49.864;19.084;2023-06-14T21:22:19;11.56;98.30
68109;SHT30;54893;49.864;19.084;2023-06-14T21:27:20;11.53;97.09
68109;SHT30;54893;49.864;19.084;2023-06-14T21:32:20;11.36;98.22
68109;SHT30;54893;49.864;19.084;2023-06-14T21:37:21;11.28;98.53
68109;SHT30;54893;49.864;19.084;2023-06-14T21:42:21;11.19;97.68
68109;SHT30;54893;49.864;19.084;2023-06-14T21:47:21;11.27;91.82
68109;SHT30;54893;49.864;19.084;2023-06-14T21:52:22;11.31;96.73
68109;SHT30;54893;49.864;19.084;2023-06-14T21:57:23;11.10;97.96
68109;SHT30;54893;49.864;19.084;2023-06-14T22:02:23;10.86;98.51
68109;SHT30;54893;49.864;19.084;2023-06-14T22:07:23;10.70;98.84
68109;SHT30;54893;49.864;19.084;2023-06-14T22:12:24;10.76;99.90
68109;SHT30;54893;49.864;19.084;2023-06-14T22:17:25;10.62;98.65
68109;SHT30;54893;49.864;19.084;2023-06-14T22:22:29;10.65;93.38
68109;SHT30;54893;49.864;19.084;2023-06-14T22:27:29;10.69;97.78
68109;SHT30;54893;49.864;19.084;2023-06-14T22:32:30;10.56;98.77
68109;SHT30;54893;49.864;19.084;2023-06-14T22:37:34;10.50;99.35
68109;SHT30;54893;49.864;19.084;2023-06-14T22:42:43;10.58;99.76
68109;SHT30;54893;49.864;19.084;2023-06-14T22:47:51;10.66;99.71
68109;SHT30;54893;49.864;19.084;2023-06-14T22:52:51;10.70;97.11
68109;SHT30;54893;49.864;19.084;2023-06-14T22:57:52;10.73;98.23
68109;SHT30;54893;49.864;19.084;2023-06-14T23:02:52;10.53;92.68
68109;SHT30;54893;49.864;19.084;2023-06-14T23:07:53;10.49;92.65
68109;SHT30;54893;49.864;19.084;2023-06-14T23:12:55;10.42;93.56
68109;SHT30;54893;49.864;19.084;2023-06-14T23:17:57;10.38;94.60
68109;SHT30;54893;49.864;19.084;2023-06-14T23:22:58;10.29;97.42
68109;SHT30;54893;49.864;19.084;2023-06-14T23:28:06;10.21;98.44
68109;SHT30;54893;49.864;19.084;2023-06-14T23:33:10;10.16;98.86
68109;SHT30;54893;49.864;19.084;2023-06-14T23:38:10;10.25;99.29
68109;SHT30;54893;49.864;19.084;2023-06-14T23:43:12;10.44;99.74
68109;SHT30;54893;49.864;19.084;2023-06-14T23:48:14;10.60;99.81
68109;SHT30;54893;49.864;19.084;2023-06-14T23:53:14;10.77;99.82
68109;SHT30;54893;49.864;19.084;2023-06-14T23:58:15;10.90;99.65
